Time;durP1;ratioP1;P1;durP2;ratioP2;P2;SDS_P1;SDS_P2;PMS_P1;PMS_P2;Temp;Humidity;BMP_temperature;BMP_pressure;BME280_temperature;BME280_humidity;BME280_pressure;Samples;Min_cycle;Max_cycle;Signal;HPM_P1;HPM_P2
2021/12/31 00:01:31;;;;;;;8.90;2.53;;;;;;;12.82;78.69;101741.59;5037822;28;20060;-66
2021/12/31 00:03:56;;;;;;;7.82;2.40;;;;;;;12.83;78.75;101748.63;5024544;28;20034;-65
2021/12/31 00:06:22;;;;;;;5.22;2.28;;;;;;;12.83;78.63;101748.63;5027337;28;20290;-64
2021/12/31 00:08:47;;;;;;;4.95;2.85;;;;;;;12.84;78.85;101747.72;5026218;28;20018;-66
2021/12/31 00:11:12;;;;;;;10.75;2.85;;;;;;;12.83;79.16;101753.91;5028068;28;20041;-65
2021/12/31 00:13:37;;;;;;;10.75;2.63;;;;;;;12.86;78.66;101747.66;5012924;28;20481;-64
2021/12/31 00:16:03;;;;;;;8.88;2.70;;;;;;;12.93;78.72;101743.06;5006780;28;20018;-65
2021/12/31 00:18:28;;;;;;;7.32;2.50;;;;;;;12.91;78.96;101748.38;5008512;28;20029;-65
2021/12/31 00:20:55;;;;;;;6.30;2.97;;;;;;;12.92;78.91;101741.31;5025811;28;20138;-63
2021/12/31 00:23:24;;;;;;;13.07;2.92;;;;;;;12.89;79.17;101732.56;5028008;28;20068;-64
2021/12/31 00:25:49;;;;;;;6.82;2.60;;;;;;;12.92;79.21;101743.97;5018476;28;20037;-63
2021/12/31 00:28:15;;;;;;;6.55;2.63;;;;;;;12.93;79.17;101743.06;5021813;28;20022;-64
2021/12/31 00:30:41;;;;;;;8.82;2.97;;;;;;;12.93;79.21;101737.75;5016124;28;20038;-63
2021/12/31 00:33:08;;;;;;;8.07;2.58;;;;;;;12.97;79.23;101736.75;5015652;28;20061;-63
2021/12/31 00:35:34;;;;;;;8.85;3.03;;;;;;;12.98;78.91;101746.44;5017512;28;20451;-65
2021/12/31 00:37:59;;;;;;;5.50;2.65;;;;;;;12.99;78.75;101734.94;5007547;28;20116;-64
2021/12/31 00:40:26;;;;;;;9.20;3.28;;;;;;;12.98;78.82;101725.28;5026424;28;20029;-65
2021/12/31 00:42:51;;;;;;;8.70;3.42;;;;;;;13.02;78.82;101733.06;5027258;28;20053;-66
2021/12/31 00:45:19;;;;;;;8.85;3.15;;;;;;;13.06;78.74;101733.00;5033407;28;20492;-65
2021/12/31 00:47:45;;;;;;;12.63;5.18;;;;;;;13.06;78.50;101725.06;5047362;28;20028;-57
2021/12/31 00:50:12;;;;;;;10.95;3.50;;;;;;;13.07;78.52;101732.06;5044905;28;20387;-64
2021/12/31 00:52:37;;;;;;;16.08;3.20;;;;;;;13.08;78.54;101733.78;5046447;28;20039;-64
2021/12/31 00:55:04;;;;;;;10.35;2.55;;;;;;;13.09;78.61;101731.09;5046010;28;20152;-66
2021/12/31 00:57:29;;;;;;;5.18;2.60;;;;;;;13.10;78.42;101738.13;5047468;28;20029;-65
2021/12/31 00:59:55;;;;;;;6.38;2.67;;;;;;;13.06;78.54;101739.13;5046386;28;20368;-65
2021/12/31 01:02:22;;;;;;;9.40;3.05;;;;;;;13.04;78.66;101733.03;5047552;28;20036;-65
2021/12/31 01:04:48;;;;;;;6.47;2.60;;;;;;;13.06;78.65;101738.28;5018853;28;20041;-65
2021/12/31 01:07:13;;;;;;;6.65;2.58;;;;;;;13.06;78.52;101735.63;5014542;28;20026;-64
2021/12/31 01:09:38;;;;;;;11.48;2.90;;;;;;;13.09;78.35;101738.16;5010754;28;20184;-63
2021/12/31 01:12:07;;;;;;;7.70;2.83;;;;;;;13.09;78.25;101736.41;5024793;28;20083;-63
2021/12/31 01:14:36;;;;;;;8.10;2.65;;;;;;;13.11;78.29;101739.88;5014280;28;20026;-66
2021/12/31 01:17:09;;;;;;;8.70;2.83;;;;;;;13.13;77.83;101732.72;5025610;28;20026;-64
2021/12/31 01:19:48;;;;;;;5.65;2.50;;;;;;;13.10;78.35;101748.69;5025915;28;20057;-64
2021/12/31 01:22:14;;;;;;;;;;;;;;;13.11;78.24;101754.88;5036558;28;20104;-64
2021/12/31 01:24:39;;;;;;;8.35;2.55;;;;;;;13.08;78.46;101755.84;5047165;28;20014;-64
2021/12/31 01:27:05;;;;;;;5.97;2.58;;;;;;;13.08;78.66;101745.25;5045399;28;20057;-64
2021/12/31 01:29:30;;;;;;;8.57;2.67;;;;;;;13.06;78.72;101757.66;5046844;28;20108;-63
2021/12/31 01:31:55;;;;;;;4.70;2.70;;;;;;;13.07;78.81;101758.53;5029610;28;20033;-65
2021/12/31 01:34:24;;;;;;;10.18;2.80;;;;;;;13.10;78.53;101754.00;5024845;28;20030;-63
2021/12/31 01:36:49;;;;;;;6.50;2.53;;;;;;;13.11;78.24;101758.41;5014811;28;20040;-64
2021/12/31 01:39:14;;;;;;;8.93;2.63;;;;;;;13.10;78.32;101754.00;5026022;28;20107;-65
2021/12/31 01:41:40;;;;;;;7.60;2.65;;;;;;;13.11;78.10;101746.94;5028087;28;20117;-64
2021/12/31 01:44:06;;;;;;;9.10;2.20;;;;;;;13.19;78.03;101754.66;5025499;28;20056;-64
2021/12/31 01:46:33;;;;;;;5.20;2.50;;;;;;;13.18;77.69;101745.81;5025986;28;20025;-65
2021/12/31 01:49:00;;;;;;;8.02;2.58;;;;;;;13.20;77.64;101764.31;5018756;28;20037;-64
2021/12/31 01:51:26;;;;;;;7.55;2.17;;;;;;;13.27;77.46;101749.97;5004809;28;20493;-64
2021/12/31 01:53:52;;;;;;;11.38;2.70;;;;;;;13.23;77.42;101753.63;5011733;28;20080;-66
2021/12/31 01:56:18;;;;;;;6.57;2.42;;;;;;;13.21;77.32;101761.63;5021063;28;20404;-64
2021/12/31 01:58:44;;;;;;;11.55;2.47;;;;;;;13.23;77.57;101754.50;5032529;28;20041;-65
2021/12/31 02:01:13;;;;;;;11.60;2.50;;;;;;;13.23;77.65;101754.50;5050700;22;20025;-64
2021/12/31 02:03:38;;;;;;;6.07;2.40;;;;;;;13.19;77.64;101773.16;4965639;28;20030;-65
2021/12/31 02:06:04;;;;;;;8.63;2.38;;;;;;;13.18;77.59;101751.13;4968666;28;20042;-65
2021/12/31 02:08:30;;;;;;;5.68;1.90;;;;;;;13.18;77.78;101760.84;4991655;28;20029;-64
2021/12/31 02:10:56;;;;;;;6.00;1.92;;;;;;;13.20;77.69;101753.72;5006712;28;20021;-65
2021/12/31 02:13:21;;;;;;;7.82;2.40;;;;;;;13.16;77.45;101750.31;5005465;28;20349;-65
2021/12/31 02:15:46;;;;;;;6.15;2.10;;;;;;;13.17;77.69;101735.28;4969446;28;20026;-65
2021/12/31 02:18:12;;;;;;;5.68;2.30;;;;;;;13.14;77.83;101747.72;4986210;28;20062;-64
2021/12/31 02:20:44;;;;;;;7.03;2.05;;;;;;;13.17;77.33;101737.94;4985577;28;20034;-64
2021/12/31 02:23:22;;;;;;;5.63;1.83;;;;;;;13.16;77.39;101737.09;4987275;28;20387;-64
2021/12/31 02:25:47;;;;;;;7.32;2.10;;;;;;;13.16;77.39;101745.03;4968778;28;20094;-64
2021/12/31 02:28:12;;;;;;;7.10;1.90;;;;;;;13.18;77.23;101745.81;4987263;28;20160;-65
2021/12/31 02:30:38;;;;;;;5.63;1.95;;;;;;;13.08;77.95;101739.97;4973069;28;20034;-63
2021/12/31 02:33:04;;;;;;;5.80;2.15;;;;;;;13.07;77.71;101754.13;5005334;28;20600;-64
2021/12/31 02:35:31;;;;;;;6.85;2.13;;;;;;;13.07;77.96;101751.47;5003962;28;20037;-64
2021/12/31 02:37:56;;;;;;;6.53;2.05;;;;;;;13.13;77.79;101745.97;5001556;28;20118;-65
2021/12/31 02:40:23;;;;;;;8.32;2.40;;;;;;;13.16;77.75;101746.78;4981345;28;20120;-65
2021/12/31 02:42:49;;;;;;;6.18;2.35;;;;;;;13.16;77.53;101742.38;4986586;28;20034;-64
2021/12/31 02:45:15;;;;;;;8.35;2.10;;;;;;;13.11;77.52;101754.88;4985396;28;20034;-64
2021/12/31 02:47:45;;;;;;;7.68;1.90;;;;;;;13.14;77.61;101737.13;4986664;28;20022;-64
2021/12/31 02:50:17;;;;;;;9.82;2.47;;;;;;;13.11;77.34;101755.75;4992969;28;20081;-63
2021/12/31 02:52:44;;;;;;;4.32;2.25;;;;;;;13.08;77.45;101745.25;4986495;28;20034;-65
2021/12/31 02:55:10;;;;;;;5.28;2.20;;;;;;;13.02;77.74;101750.72;4985547;28;20540;-65
2021/12/31 02:57:37;;;;;;;5.65;2.00;;;;;;;13.03;77.87;101755.09;4986437;28;20038;-66
2021/12/31 03:00:03;;;;;;;10.13;2.22;;;;;;;13.02;77.55;101742.78;5003847;28;20034;-64
2021/12/31 03:02:29;;;;;;;8.57;2.03;;;;;;;13.04;77.72;101746.25;5005685;28;20628;-64
2021/12/31 03:04:55;;;;;;;9.15;2.38;;;;;;;13.03;77.94;101752.44;4950948;28;20062;-64
2021/12/31 03:07:22;;;;;;;9.27;2.65;;;;;;;13.01;77.74;101751.66;4971046;28;20096;-65
2021/12/31 03:09:48;;;;;;;11.00;2.50;;;;;;;13.02;77.76;101745.44;4986867;28;20543;-64
2021/12/31 03:12:14;;;;;;;8.93;2.00;;;;;;;13.07;77.60;101738.22;4968416;28;20018;-64
2021/12/31 03:14:43;;;;;;;4.70;1.75;;;;;;;13.04;77.51;101738.31;4984411;28;20037;-65
2021/12/31 03:17:08;;;;;;;9.93;1.87;;;;;;;13.02;77.82;101734.84;4984433;28;20465;-67
2021/12/31 03:19:34;;;;;;;8.38;2.60;;;;;;;13.04;77.31;101717.16;4989385;28;20037;-64
2021/12/31 03:21:59;;;;;;;7.25;2.20;;;;;;;13.00;77.34;101720.78;4988576;28;20477;-64
2021/12/31 03:24:24;;;;;;;9.25;2.20;;;;;;;13.02;77.45;101713.69;4977670;28;20037;-63
2021/12/31 03:26:50;;;;;;;14.52;2.40;;;;;;;13.02;77.21;101714.56;4986952;28;20037;-64
2021/12/31 03:29:15;;;;;;;6.90;2.38;;;;;;;13.06;77.15;101714.47;4989561;28;20027;-63
2021/12/31 03:31:40;;;;;;;7.00;2.20;;;;;;;13.03;77.31;101720.69;4989479;28;20109;-65
2021/12/31 03:34:06;;;;;;;5.40;1.85;;;;;;;13.05;76.87;101729.47;4987707;28;20035;-63
2021/12/31 03:36:31;;;;;;;5.25;1.83;;;;;;;13.02;77.07;101719.84;4972233;28;20169;-65
2021/12/31 03:38:56;;;;;;;6.40;1.88;;;;;;;13.02;76.65;101726.91;4987473;28;20042;-63
2021/12/31 03:41:22;;;;;;;9.13;2.17;;;;;;;13.04;76.77;101727.75;4981307;28;20489;-65
2021/12/31 03:43:47;;;;;;;8.13;2.00;;;;;;;13.08;76.50;101721.44;4969917;28;20512;-65
2021/12/31 03:46:12;;;;;;;6.05;1.80;;;;;;;13.11;76.44;101720.47;4976791;28;20389;-67
2021/12/31 03:48:38;;;;;;;6.38;1.73;;;;;;;13.08;76.64;101725.84;4989588;28;20301;-64
2021/12/31 03:51:03;;;;;;;5.35;2.35;;;;;;;13.10;76.43;101718.75;4986507;28;20483;-66
2021/12/31 03:53:28;;;;;;;4.20;1.77;;;;;;;13.17;75.71;101717.66;4988805;28;20079;-65
2021/12/31 03:55:54;;;;;;;6.97;1.42;;;;;;;13.20;75.49;101719.31;4987882;28;20404;-65
2021/12/31 03:58:19;;;;;;;8.30;1.90;;;;;;;13.23;75.27;101721.88;4988360;28;20085;-64
2021/12/31 04:00:46;;;;;;;7.03;2.00;;;;;;;13.22;75.12;101726.28;4970951;28;20158;-59
2021/12/31 04:03:12;;;;;;;5.25;1.77;;;;;;;13.23;75.13;101728.03;5008829;28;20084;-65
2021/12/31 04:05:40;;;;;;;9.25;1.83;;;;;;;13.27;75.08;101726.16;5007683;28;20125;-64
2021/12/31 04:08:06;;;;;;;7.93;1.70;;;;;;;13.24;75.16;101726.25;5008084;28;20484;-64
2021/12/31 04:10:32;;;;;;;5.00;1.75;;;;;;;13.28;74.65;101733.19;4995550;28;20161;-65
2021/12/31 04:12:57;;;;;;;6.60;1.50;;;;;;;13.28;74.46;101727.91;4982381;28;20037;-63
2021/12/31 04:15:23;;;;;;;3.85;1.58;;;;;;;13.24;74.91;101728.88;4977761;28;20580;-63
2021/12/31 04:17:48;;;;;;;3.20;1.60;;;;;;;13.22;74.88;101730.75;4987172;28;20337;-64
2021/12/31 04:20:31;;;;;;;6.88;2.00;;;;;;;13.24;74.84;101726.25;4983530;28;20019;-66
2021/12/31 04:22:58;;;;;;;5.72;1.60;;;;;;;13.27;74.26;101721.72;4977563;28;20548;-63
2021/12/31 04:25:23;;;;;;;6.28;1.80;;;;;;;13.29;74.41;101726.09;4968585;28;20037;-64
2021/12/31 04:27:49;;;;;;;5.40;1.70;;;;;;;13.30;73.94;101715.47;4970382;28;20485;-65
2021/12/31 04:30:14;;;;;;;4.25;1.67;;;;;;;13.29;74.31;101713.75;4989103;28;20044;-66
2021/12/31 04:32:40;;;;;;;3.47;1.48;;;;;;;13.26;74.14;101716.47;4988468;28;20392;-65
2021/12/31 04:35:07;;;;;;;5.38;1.75;;;;;;;13.26;74.13;101706.78;4987540;28;20018;-64
2021/12/31 04:37:33;;;;;;;5.50;1.30;;;;;;;13.22;74.07;101712.22;4970509;28;20517;-65
2021/12/31 04:39:58;;;;;;;4.85;1.52;;;;;;;13.24;73.59;101702.44;4985341;28;20082;-65
2021/12/31 04:42:23;;;;;;;5.82;1.40;;;;;;;13.21;73.82;101699.88;4978842;28;20078;-67
2021/12/31 04:44:49;;;;;;;5.43;1.30;;;;;;;13.11;74.07;101694.88;4988424;28;20034;-65
2021/12/31 04:47:14;;;;;;;5.22;1.50;;;;;;;13.06;74.15;101685.38;4987942;28;20037;-65
2021/12/31 04:49:39;;;;;;;2.85;1.40;;;;;;;13.00;74.64;101687.28;4988023;28;20396;-63
2021/12/31 04:52:05;;;;;;;3.17;1.48;;;;;;;12.91;74.67;101674.31;4997349;28;20124;-64
2021/12/31 04:54:30;;;;;;;3.33;1.38;;;;;;;12.81;75.04;101673.75;5007959;28;20037;-68
2021/12/31 04:56:58;;;;;;;3.50;1.60;;;;;;;12.84;75.07;101657.78;5006547;28;20026;-64
2021/12/31 04:59:23;;;;;;;5.50;1.65;;;;;;;12.82;74.91;101649.03;5007778;28;20477;-67
2021/12/31 05:01:49;;;;;;;3.40;1.30;;;;;;;12.80;74.89;101661.44;4971690;28;20050;-66
2021/12/31 05:04:15;;;;;;;3.83;1.60;;;;;;;12.73;75.38;101649.28;4987669;28;20038;-63
2021/12/31 05:06:40;;;;;;;4.05;1.55;;;;;;;12.71;75.23;101644.06;4987748;28;20022;-66
2021/12/31 05:09:06;;;;;;;3.80;1.48;;;;;;;12.66;75.41;101645.97;4990820;28;20030;-66
2021/12/31 05:11:32;;;;;;;10.60;2.13;;;;;;;12.64;75.25;101661.88;4988299;28;20468;-64
2021/12/31 05:13:57;;;;;;;2.47;1.35;;;;;;;12.64;75.63;101661.88;4971621;28;20061;-63
2021/12/31 05:16:23;;;;;;;7.85;2.03;;;;;;;12.60;75.79;101670.81;4971698;28;20054;-66
2021/12/31 05:18:48;;;;;;;5.22;1.75;;;;;;;12.60;75.76;101664.66;4982923;28;20502;-64
2021/12/31 05:21:13;;;;;;;3.67;1.55;;;;;;;12.55;75.85;101674.53;4987904;28;20030;-65
2021/12/31 05:23:39;;;;;;;7.00;1.83;;;;;;;12.49;76.14;101671.13;4986253;28;20236;-66
2021/12/31 05:26:04;;;;;;;7.40;1.63;;;;;;;12.42;76.58;101666.94;4986932;28;20432;-65
2021/12/31 05:28:32;;;;;;;3.17;1.60;;;;;;;12.43;76.80;101678.38;4986879;28;20377;-64
2021/12/31 05:30:57;;;;;;;6.22;2.17;;;;;;;12.40;76.70;101683.75;4987067;28;20400;-65
2021/12/31 05:33:22;;;;;;;6.28;1.90;;;;;;;12.42;76.69;101687.19;4982505;28;20026;-65
2021/12/31 05:35:48;;;;;;;5.25;1.65;;;;;;;12.37;76.64;101685.56;4966374;28;20027;-63
2021/12/31 05:38:13;;;;;;;4.82;1.77;;;;;;;12.36;76.78;101680.31;4987664;28;20036;-67
2021/12/31 05:40:38;;;;;;;10.77;1.95;;;;;;;12.34;76.92;101679.50;4971475;28;20022;-64
2021/12/31 05:43:04;;;;;;;7.07;2.13;;;;;;;12.36;76.75;101686.47;4978285;28;20393;-66
2021/12/31 05:45:29;;;;;;;6.53;1.70;;;;;;;12.31;77.02;101682.22;4987700;28;20506;-65
2021/12/31 05:47:54;;;;;;;7.32;1.58;;;;;;;12.29;77.30;101682.28;4985833;28;20504;-64
2021/12/31 05:50:29;;;;;;;5.63;1.95;;;;;;;12.27;76.89;101676.16;4977873;28;20030;-65
2021/12/31 05:52:55;;;;;;;5.45;1.92;;;;;;;12.17;77.27;101678.19;4987082;28;20014;-65
2021/12/31 05:55:21;;;;;;;4.95;1.73;;;;;;;12.23;77.18;101671.88;4992075;28;20472;-64
2021/12/31 05:57:46;;;;;;;6.82;1.75;;;;;;;12.24;77.15;101684.16;4987210;28;20025;-65
2021/12/31 06:00:12;;;;;;;5.90;1.90;;;;;;;12.29;76.86;101684.03;4987398;28;20484;-65
2021/12/31 06:02:37;;;;;;;3.95;1.95;;;;;;;12.28;76.67;101680.50;4986662;28;20042;-66
2021/12/31 06:05:03;;;;;;;6.18;2.08;;;;;;;12.31;76.80;101696.28;4986296;28;20507;-65
2021/12/31 06:07:28;;;;;;;3.55;2.00;;;;;;;12.27;76.52;101694.66;4986831;28;20049;-65
2021/12/31 06:09:54;;;;;;;6.97;1.92;;;;;;;12.30;76.88;101689.28;4986585;28;20030;-65
2021/12/31 06:12:19;;;;;;;4.35;2.25;;;;;;;12.28;76.66;101684.97;4986895;28;20037;-65
2021/12/31 06:14:44;;;;;;;7.47;1.73;;;;;;;12.25;76.54;101667.38;4982273;28;20030;-56
2021/12/31 06:17:11;;;;;;;6.13;1.80;;;;;;;12.21;76.50;101655.19;4985297;28;20376;-67
2021/12/31 06:19:38;;;;;;;5.95;2.28;;;;;;;12.06;76.86;101649.38;4985784;28;20042;-66
2021/12/31 06:22:03;;;;;;;9.60;2.30;;;;;;;12.00;77.17;101658.34;4986553;28;20031;-65
2021/12/31 06:24:29;;;;;;;5.97;1.67;;;;;;;11.98;77.52;101652.22;4986879;28;20037;-63
2021/12/31 06:26:55;;;;;;;8.98;2.30;;;;;;;11.98;77.18;101651.38;4986969;28;20037;-65
2021/12/31 06:29:20;;;;;;;5.55;2.20;;;;;;;11.98;77.03;101641.66;4988963;28;20038;-65
2021/12/31 06:31:45;;;;;;;3.78;1.70;;;;;;;11.94;77.37;101642.66;4986885;28;20041;-65
2021/12/31 06:34:11;;;;;;;7.30;1.70;;;;;;;11.92;77.52;101640.97;4986587;28;20112;-67
2021/12/31 06:36:36;;;;;;;4.90;2.00;;;;;;;11.87;77.37;101634.00;4980158;28;20085;-66
2021/12/31 06:39:03;;;;;;;4.35;2.00;;;;;;;11.79;77.55;101628.09;4985086;28;20030;-66
2021/12/31 06:41:29;;;;;;;6.20;2.15;;;;;;;11.82;77.50;101625.38;4985015;28;20505;-67
2021/12/31 06:43:54;;;;;;;5.50;2.20;;;;;;;11.82;77.49;101632.41;4985920;28;20026;-64
2021/12/31 06:46:20;;;;;;;7.55;2.13;;;;;;;11.90;77.35;101632.22;4986551;28;20057;-64
2021/12/31 06:48:46;;;;;;;5.03;2.00;;;;;;;11.85;77.54;101627.06;4987597;28;20038;-65
2021/12/31 06:51:11;;;;;;;5.43;2.05;;;;;;;11.83;77.48;101642.09;4985681;28;20023;-66
2021/12/31 06:53:37;;;;;;;3.92;1.83;;;;;;;11.82;77.46;101635.94;4977614;28;20031;-66
2021/12/31 06:56:02;;;;;;;4.70;1.70;;;;;;;11.84;77.18;101627.97;4989892;28;20080;-66
2021/12/31 06:58:27;;;;;;;6.85;2.00;;;;;;;11.83;77.41;101648.22;4989736;28;20109;-66
2021/12/31 07:00:53;;;;;;;6.55;2.08;;;;;;;11.82;77.43;101657.06;4989434;28;20057;-66
2021/12/31 07:03:18;;;;;;;5.57;1.67;;;;;;;11.79;77.42;101636.00;4989726;28;20050;-66
2021/12/31 07:05:43;;;;;;;5.55;2.03;;;;;;;11.77;77.68;101652.81;4971485;28;20030;-64
2021/12/31 07:08:10;;;;;;;5.88;1.70;;;;;;;11.74;77.47;101659.88;4987922;28;20053;-65
2021/12/31 07:10:35;;;;;;;6.93;1.73;;;;;;;11.72;77.54;101664.34;4988923;28;20047;-65
2021/12/31 07:13:10;;;;;;;5.20;2.00;;;;;;;11.72;77.45;101652.91;4989063;28;20261;-65
2021/12/31 07:15:39;;;;;;;8.30;2.30;;;;;;;11.72;77.53;101672.28;5006228;28;20054;-68
2021/12/31 07:18:04;;;;;;;6.20;2.17;;;;;;;11.80;77.29;101673.84;4984471;28;20393;-64
2021/12/31 07:20:30;;;;;;;8.40;2.05;;;;;;;11.80;77.13;101658.00;4986505;28;20060;-65
2021/12/31 07:22:55;;;;;;;5.22;2.20;;;;;;;11.83;77.02;101679.91;4988925;28;20014;-67
2021/12/31 07:25:20;;;;;;;5.18;2.05;;;;;;;11.77;77.62;101668.66;4988437;28;20018;-65
2021/12/31 07:27:50;;;;;;;5.55;1.98;;;;;;;11.83;77.18;101664.06;4991168;28;20034;-70
2021/12/31 07:30:16;;;;;;;4.40;2.00;;;;;;;11.79;77.17;101667.69;4990119;28;20148;-63
2021/12/31 07:32:42;;;;;;;4.30;1.98;;;;;;;11.78;77.46;101673.88;4986805;28;20030;-65
2021/12/31 07:35:07;;;;;;;3.15;1.55;;;;;;;11.82;77.02;101672.91;4987656;28;20514;-64
2021/12/31 07:37:33;;;;;;;3.75;1.67;;;;;;;11.83;76.96;101679.91;4989125;28;20038;-60
2021/12/31 07:40:04;;;;;;;4.53;1.80;;;;;;;11.84;77.13;101639.41;4988346;28;20046;-62
2021/12/31 07:42:29;;;;;;;6.20;2.03;;;;;;;11.83;76.81;101650.00;4985623;28;20117;-65
2021/12/31 07:44:55;;;;;;;7.05;2.20;;;;;;;11.85;76.93;101656.97;4986639;28;20038;-66
2021/12/31 07:47:20;;;;;;;5.03;2.10;;;;;;;11.87;76.69;101660.44;4988834;28;20376;-65
2021/12/31 07:49:46;;;;;;;3.85;1.98;;;;;;;11.90;76.88;101653.34;4987297;28;20030;-63
2021/12/31 07:52:11;;;;;;;3.67;1.80;;;;;;;11.86;76.50;101658.69;4988804;28;20019;-63
2021/12/31 07:54:37;;;;;;;4.07;1.85;;;;;;;11.86;76.78;101669.25;4988544;28;20081;-62
2021/12/31 07:57:02;;;;;;;6.55;1.92;;;;;;;11.90;76.60;101663.91;4988863;28;20034;-62
2021/12/31 07:59:27;;;;;;;4.38;2.25;;;;;;;11.90;76.78;101669.19;4987406;28;20026;-65
2021/12/31 08:01:53;;;;;;;5.53;2.03;;;;;;;11.89;76.80;101676.22;4988466;28;20578;-65
2021/12/31 08:04:18;;;;;;;4.28;2.00;;;;;;;11.83;76.65;101684.34;4975742;28;20033;-67
2021/12/31 08:06:43;;;;;;;3.83;1.80;;;;;;;11.84;76.83;101672.84;4988061;28;20025;-67
2021/12/31 08:09:08;;;;;;;2.83;1.92;;;;;;;11.80;76.91;101669.41;4987801;28;20042;-69
2021/12/31 08:11:34;;;;;;;4.43;2.08;;;;;;;11.85;76.77;101664.91;4987324;28;20034;-71
2021/12/31 08:13:59;;;;;;;9.10;1.92;;;;;;;11.82;76.95;101682.59;4987713;28;20027;-70
2021/12/31 08:16:24;;;;;;;6.20;2.00;;;;;;;11.82;76.75;101698.41;4987706;28;20022;-72
2021/12/31 08:18:50;;;;;;;8.18;2.35;;;;;;;11.86;76.74;101690.38;4986104;28;20033;-68
2021/12/31 08:21:15;;;;;;;4.15;2.10;;;;;;;11.88;76.62;101693.00;4987987;28;20025;-63
2021/12/31 08:23:41;;;;;;;2.80;1.90;;;;;;;11.91;76.50;101692.91;4985093;28;20477;-66
2021/12/31 08:26:06;;;;;;;4.47;2.20;;;;;;;11.94;76.66;101702.53;4988543;28;20116;-64
2021/12/31 08:28:31;;;;;;;5.00;1.98;;;;;;;11.96;76.38;101691.03;4987043;28;20030;-64
2021/12/31 08:30:58;;;;;;;3.53;1.50;;;;;;;11.98;76.13;101683.91;4987858;28;20037;-63
2021/12/31 08:33:24;;;;;;;2.85;1.70;;;;;;;11.95;76.68;101677.88;4986165;28;20030;-64
2021/12/31 08:35:50;;;;;;;9.10;1.88;;;;;;;11.87;76.57;101673.63;4969305;28;20034;-63
2021/12/31 08:38:15;;;;;;;6.22;2.03;;;;;;;11.93;76.50;101671.75;4988378;28;20053;-61
2021/12/31 08:40:40;;;;;;;3.05;1.63;;;;;;;11.92;76.61;101688.50;4987462;28;20026;-67
2021/12/31 08:43:06;;;;;;;4.35;1.98;;;;;;;11.99;76.01;101682.16;5004341;28;20030;-63
2021/12/31 08:45:32;;;;;;;3.78;2.13;;;;;;;12.07;76.09;101684.63;4976010;28;20019;-62
2021/12/31 08:47:58;;;;;;;2.63;1.60;;;;;;;12.09;75.63;101682.78;4973953;28;20476;-64
2021/12/31 08:50:23;;;;;;;6.05;1.80;;;;;;;12.10;75.91;101689.84;4973976;28;20037;-65
2021/12/31 08:52:49;;;;;;;8.55;2.08;;;;;;;12.10;75.75;101698.59;4972311;28;20053;-63
2021/12/31 08:55:14;;;;;;;3.97;1.75;;;;;;;12.10;76.12;101682.75;4986511;28;20389;-62
2021/12/31 08:57:40;;;;;;;5.78;2.13;;;;;;;12.12;75.64;101677.44;4987699;28;20415;-61
2021/12/31 09:00:06;;;;;;;4.97;1.92;;;;;;;12.10;75.48;101674.00;4977801;28;20026;-63
2021/12/31 09:02:32;;;;;;;4.88;1.60;;;;;;;12.20;75.33;101678.09;4987671;28;20050;-64
2021/12/31 09:04:58;;;;;;;3.25;1.95;;;;;;;12.28;74.98;101683.16;4967946;28;20029;-63
2021/12/31 09:07:23;;;;;;;5.18;1.80;;;;;;;12.33;74.84;101683.91;4987585;28;20026;-64
2021/12/31 09:09:48;;;;;;;4.03;1.73;;;;;;;12.42;74.62;101684.56;4986892;28;20025;-62
2021/12/31 09:12:14;;;;;;;5.88;1.70;;;;;;;12.48;74.32;101684.38;4985992;28;20536;-63
2021/12/31 09:14:39;;;;;;;8.20;2.08;;;;;;;12.45;74.15;101671.25;5002461;28;20084;-61
2021/12/31 09:17:04;;;;;;;5.55;2.33;;;;;;;12.48;74.34;101687.91;5006418;28;20042;-62
2021/12/31 09:19:30;;;;;;;2.00;1.60;;;;;;;12.49;74.45;101712.53;4994118;28;20155;-63
2021/12/31 09:21:55;;;;;;;4.28;2.08;;;;;;;12.47;74.59;101703.81;4991653;28;20096;-64
2021/12/31 09:24:21;;;;;;;4.25;1.65;;;;;;;12.45;74.30;101729.41;4974924;28;20619;-62
2021/12/31 09:26:47;;;;;;;3.67;1.95;;;;;;;12.43;74.67;101732.09;4986327;28;20053;-62
2021/12/31 09:29:16;;;;;;;5.15;1.73;;;;;;;12.42;74.63;101745.34;4980809;28;20358;-62
2021/12/31 09:31:42;;;;;;;8.60;1.90;;;;;;;12.44;74.68;101732.97;4986614;28;20102;-63
2021/12/31 09:34:07;;;;;;;5.65;1.88;;;;;;;12.43;74.33;101710.94;4986217;28;20089;-63
2021/12/31 09:36:32;;;;;;;3.88;1.88;;;;;;;12.42;74.27;101713.63;4986022;28;20488;-63
2021/12/31 09:38:58;;;;;;;8.40;2.00;;;;;;;12.42;74.47;101713.63;5005095;28;20091;-62
2021/12/31 09:41:23;;;;;;;3.42;1.80;;;;;;;12.35;74.66;101712.94;5006163;28;20044;-62
2021/12/31 09:43:50;;;;;;;5.55;2.00;;;;;;;12.38;74.61;101719.00;4990649;28;20385;-60
2021/12/31 09:46:16;;;;;;;4.35;2.10;;;;;;;12.38;74.49;101740.13;4986367;28;20014;-61
2021/12/31 09:48:41;;;;;;;5.55;2.30;;;;;;;12.41;74.77;101751.53;4985813;28;20046;-65
2021/12/31 09:51:07;;;;;;;7.03;2.50;;;;;;;12.47;74.33;101743.47;4986333;28;20555;-59
2021/12/31 09:53:33;;;;;;;4.20;2.00;;;;;;;12.50;74.41;101735.44;4984256;28;20029;-61
2021/12/31 09:55:58;;;;;;;5.78;2.05;;;;;;;12.49;74.31;101733.69;4982892;28;20041;-61
2021/12/31 09:58:25;;;;;;;4.68;1.95;;;;;;;12.52;74.25;101725.69;4985429;28;20037;-63
2021/12/31 10:00:57;;;;;;;5.72;2.17;;;;;;;12.55;74.19;101724.75;4983920;28;20018;-63
2021/12/31 10:03:25;;;;;;;5.88;2.08;;;;;;;12.53;74.44;101721.25;4984226;28;20054;-63
2021/12/31 10:05:59;;;;;;;4.97;2.33;;;;;;;12.54;74.09;101723.88;4983480;28;20030;-63
2021/12/31 10:08:29;;;;;;;3.70;2.08;;;;;;;12.50;74.27;101735.44;4984240;28;20053;-62
2021/12/31 10:11:14;;;;;;;3.45;2.20;;;;;;;12.54;74.08;101739.72;4984595;28;20100;-63
2021/12/31 10:13:44;;;;;;;4.65;1.92;;;;;;;12.56;74.21;101760.84;4983459;28;20509;-61
2021/12/31 10:16:42;;;;;;;6.88;2.22;;;;;;;12.54;74.10;101768.81;4986619;28;20023;-63
2021/12/31 10:19:08;;;;;;;4.63;1.92;;;;;;;12.53;74.35;101742.41;4937649;28;20046;-66
2021/12/31 10:21:40;;;;;;;4.55;2.35;;;;;;;12.48;74.56;101761.03;4986067;28;20122;-67
2021/12/31 10:24:22;;;;;;;4.85;2.30;;;;;;;12.37;74.92;101727.84;4986503;28;20034;-60
2021/12/31 10:26:48;;;;;;;7.18;2.45;;;;;;;12.43;74.23;101710.94;4987258;28;20097;-61
2021/12/31 10:29:14;;;;;;;8.15;2.40;;;;;;;12.42;74.67;101713.63;4987646;28;20029;-60
2021/12/31 10:31:43;;;;;;;8.32;2.60;;;;;;;12.53;74.33;101690.41;4988558;28;20026;-58
2021/12/31 10:34:34;;;;;;;5.10;2.28;;;;;;;12.64;73.91;101656.59;4988255;28;20280;-59
2021/12/31 10:37:12;;;;;;;6.75;2.40;;;;;;;12.64;73.83;101614.28;4970222;28;20117;-63
2021/12/31 10:39:39;;;;;;;8.60;2.65;;;;;;;12.75;73.39;101623.69;4968949;28;20440;-59
2021/12/31 10:42:07;;;;;;;6.65;2.60;;;;;;;12.80;73.20;101618.25;4988711;28;20169;-60
2021/12/31 10:44:44;;;;;;;6.22;2.83;;;;;;;12.77;73.27;101648.31;4989603;28;20034;-61
2021/12/31 10:47:21;;;;;;;7.70;3.05;;;;;;;12.87;73.15;101657.69;4991003;28;20480;-60
2021/12/31 10:50:08;;;;;;;6.07;2.45;;;;;;;13.10;72.32;101666.69;4988507;28;20038;-70
2021/12/31 10:53:10;;;;;;;7.95;2.33;;;;;;;13.23;71.88;101695.41;4991091;28;20037;-59
2021/12/31 10:55:40;;;;;;;6.15;2.42;;;;;;;13.28;72.09;101672.31;4993003;28;20033;-60
2021/12/31 10:58:07;;;;;;;6.70;2.58;;;;;;;13.45;71.25;101673.56;4984263;28;20505;-62
2021/12/31 11:00:37;;;;;;;4.22;2.15;;;;;;;13.47;71.21;101671.72;4988690;28;20041;-61
2021/12/31 11:03:03;;;;;;;5.95;2.25;;;;;;;13.45;70.92;101690.28;4986570;28;20082;-61
2021/12/31 11:05:28;;;;;;;6.28;2.42;;;;;;;13.39;71.02;101694.00;4989956;28;20516;-62
2021/12/31 11:07:58;;;;;;;10.73;2.85;;;;;;;13.37;71.19;101693.19;4988085;28;20058;-59
2021/12/31 11:10:28;;;;;;;5.57;2.38;;;;;;;13.29;71.37;101700.50;4990068;28;20093;-62
2021/12/31 11:12:54;;;;;;;6.20;2.60;;;;;;;13.27;71.54;101697.91;4987561;28;20015;-60
2021/12/31 11:15:20;;;;;;;6.90;2.95;;;;;;;13.14;71.93;101681.56;4989312;28;20023;-59
2021/12/31 11:17:45;;;;;;;6.65;2.88;;;;;;;13.16;71.78;101689.47;4988494;28;20300;-61
2021/12/31 11:20:12;;;;;;;5.05;2.50;;;;;;;13.07;71.88;101689.75;4987955;28;20093;-61
2021/12/31 11:22:38;;;;;;;10.95;3.40;;;;;;;13.00;72.38;101694.34;4971706;28;20050;-60